Kezdőlap
METAR-TAF:

METAR-TAF

Repülőterek :

Red Oak Municipal Airport

Red Oak, Iowa, Amerikai Egyesült Államok

földrajzi szélesség: 41-01N, földrajzi hosszúság: 095-16W, magasság: 318 m

Jelenlegi meteorológiai megfigyelések

A jelentés 19 perccel ezelõtt készült, 02:15 UTC
Szélcsend
Hőmérséklet 14°C
Páratartalom 51%
Légköri nyomás 1009 hPa
Látótávolság: 12.9 km
Derült ég

METAR: KRDK 250215Z AUTO 00000KT 8SM CLR 14/04 A2979 RMK AO2

Idő: 21:34 (02:34 UTC)


TAF: hiányzik

Meteorológiai megfigyelések és előrejelzések több, mint 4000 repülőtéren (METAR és TAF jelentéseket).

A térképen piros és sárga pontok jelzik az elérhető meteorológiai állomásokat.

Mozgassa az egeret a pont fölött, hogy megjelenjen az állomás neve.

Azután kattintson az időjárási megfigyelések és előrejelzések megtekintéséhez.

A térkép megváltoztatása: kattintson a fekete keresztel jelölt zöld gombra ráközelítéshez, a vonallal jelölt zöld gombra távolításhoz, vagy a zöld nyilakra a szomszédos térképek eléréséhez.


METAR-TAF: